createdAt,value
2023-05-08T00:00:43.279Z,0.00
2023-05-08T00:01:43.280Z,0.00
2023-05-08T00:02:43.361Z,0.00
2023-05-08T00:03:43.493Z,0.00
2023-05-08T00:04:43.356Z,0.00
2023-05-08T00:05:43.235Z,0.00
2023-05-08T00:06:43.238Z,0.00
2023-05-08T00:07:43.208Z,0.00
2023-05-08T00:08:43.195Z,0.00
2023-05-08T00:09:43.180Z,0.00
2023-05-08T00:10:43.175Z,0.00
2023-05-08T00:11:43.175Z,0.00
2023-05-08T00:12:43.198Z,0.00
2023-05-08T00:13:43.146Z,0.00
2023-05-08T00:14:43.134Z,0.00
2023-05-08T00:15:43.150Z,0.00
2023-05-08T00:16:43.186Z,0.00
2023-05-08T00:17:43.136Z,0.00
2023-05-08T00:18:43.106Z,0.00
2023-05-08T00:19:43.092Z,0.00
2023-05-08T00:20:43.096Z,0.00
2023-05-08T00:21:43.062Z,0.00
2023-05-08T00:22:43.174Z,0.00
2023-05-08T00:23:43.050Z,0.00
2023-05-08T00:24:43.032Z,0.00
2023-05-08T00:25:43.061Z,0.00
2023-05-08T00:26:43.017Z,0.00
2023-05-08T00:27:43.006Z,0.00
2023-05-08T00:28:42.993Z,0.00
2023-05-08T00:29:43.002Z,0.00
2023-05-08T00:30:42.979Z,0.00
2023-05-08T00:31:42.982Z,0.00
2023-05-08T00:32:42.964Z,0.00
2023-05-08T00:33:42.948Z,0.00
2023-05-08T00:34:42.948Z,0.00
2023-05-08T00:35:42.929Z,0.00
2023-05-08T00:36:42.920Z,0.00
2023-05-08T00:37:42.894Z,0.00
2023-05-08T00:38:42.904Z,0.00
2023-05-08T00:39:42.895Z,0.00
2023-05-08T00:40:42.859Z,0.00
2023-05-08T00:41:42.860Z,0.00
2023-05-08T00:42:42.865Z,0.00
2023-05-08T00:43:42.853Z,0.00
2023-05-08T00:44:42.822Z,0.00
2023-05-08T00:45:42.820Z,0.00
2023-05-08T00:46:42.832Z,0.00
2023-05-08T00:47:42.832Z,0.00
2023-05-08T00:48:42.796Z,0.00
2023-05-08T00:49:42.806Z,0.00
2023-05-08T00:50:42.776Z,0.00
2023-05-08T00:51:42.745Z,0.00
2023-05-08T00:52:42.764Z,0.00
2023-05-08T00:53:42.753Z,0.00
2023-05-08T00:54:42.750Z,0.00
2023-05-08T00:55:42.710Z,0.00
2023-05-08T00:56:42.717Z,0.00
2023-05-08T00:57:42.723Z,0.00
2023-05-08T00:58:42.729Z,0.00
2023-05-08T00:59:42.660Z,0.00
2023-05-08T01:00:42.656Z,0.00
2023-05-08T01:01:42.692Z,0.00
2023-05-08T01:02:42.716Z,0.00
2023-05-08T01:03:42.863Z,0.00
2023-05-08T01:04:42.612Z,0.00
2023-05-08T01:05:42.603Z,0.00
2023-05-08T01:06:42.617Z,0.00
2023-05-08T01:07:42.596Z,0.00
2023-05-08T01:08:42.584Z,0.00
2023-05-08T01:09:42.560Z,0.00
2023-05-08T01:10:42.556Z,0.00
2023-05-08T01:11:42.553Z,0.00
2023-05-08T01:12:43.365Z,0.00
2023-05-08T01:13:42.518Z,0.00
2023-05-08T01:14:42.508Z,0.00
2023-05-08T01:15:42.515Z,0.00
2023-05-08T01:16:42.513Z,0.00
2023-05-08T01:17:42.507Z,0.00
2023-05-08T01:18:42.475Z,0.00
2023-05-08T01:19:42.463Z,0.00
2023-05-08T01:20:42.480Z,0.00
2023-05-08T01:21:42.462Z,0.00
2023-05-08T01:22:42.430Z,0.00
2023-05-08T01:23:42.435Z,0.00
2023-05-08T01:24:42.422Z,0.00
2023-05-08T01:25:42.444Z,0.00
2023-05-08T01:26:42.382Z,0.00
2023-05-08T01:27:42.387Z,0.00
2023-05-08T01:28:42.372Z,0.00
2023-05-08T01:29:42.359Z,0.00
2023-05-08T01:30:42.366Z,0.00
2023-05-08T01:31:42.336Z,0.00
2023-05-08T01:32:42.343Z,0.00
2023-05-08T01:33:42.361Z,0.00
2023-05-08T01:34:42.318Z,0.00
2023-05-08T01:35:42.307Z,0.00
2023-05-08T01:36:42.288Z,0.00
2023-05-08T01:37:42.276Z,0.00
2023-05-08T01:38:42.264Z,0.00
2023-05-08T01:39:42.265Z,0.00
2023-05-08T01:40:42.257Z,0.00
2023-05-08T01:41:42.222Z,0.00
2023-05-08T01:42:42.219Z,0.00
2023-05-08T01:43:42.209Z,0.00
2023-05-08T01:44:42.215Z,0.00
2023-05-08T01:45:42.196Z,0.00
2023-05-08T01:46:42.257Z,0.00
2023-05-08T01:47:42.214Z,0.00
2023-05-08T01:48:42.179Z,0.00
2023-05-08T01:49:42.167Z,0.00
2023-05-08T01:50:42.146Z,0.00
2023-05-08T01:51:42.129Z,0.00
2023-05-08T01:52:42.119Z,0.00
2023-05-08T01:53:42.137Z,0.00
2023-05-08T01:54:42.093Z,0.00
2023-05-08T01:55:42.087Z,0.00
2023-05-08T01:56:42.096Z,0.00
2023-05-08T01:57:42.063Z,0.00
2023-05-08T01:58:42.077Z,0.00
2023-05-08T01:59:42.037Z,0.00
2023-05-08T02:00:42.063Z,0.00
2023-05-08T02:01:42.021Z,0.00
2023-05-08T02:02:42.141Z,0.00
2023-05-08T02:03:42.054Z,0.00
2023-05-08T02:04:41.991Z,0.00
2023-05-08T02:05:41.976Z,0.00
2023-05-08T02:06:41.972Z,0.00
2023-05-08T02:07:41.979Z,0.00
2023-05-08T02:08:41.955Z,0.00
2023-05-08T02:09:41.945Z,0.00
2023-05-08T02:10:41.938Z,0.00
2023-05-08T02:11:41.920Z,0.00
2023-05-08T02:12:41.972Z,0.00
2023-05-08T02:13:41.917Z,0.00
2023-05-08T02:14:41.887Z,0.00
2023-05-08T02:15:41.873Z,0.00
2023-05-08T02:16:42.009Z,0.00
2023-05-08T02:17:41.940Z,0.00
2023-05-08T02:18:41.845Z,0.00
2023-05-08T02:19:41.838Z,0.00
2023-05-08T02:20:41.814Z,0.00
2023-05-08T02:21:41.835Z,0.00
2023-05-08T02:22:41.797Z,0.00
2023-05-08T02:23:41.799Z,0.00
2023-05-08T02:24:41.782Z,0.00
2023-05-08T02:25:41.778Z,0.00
2023-05-08T02:26:41.799Z,0.00
2023-05-08T02:27:41.756Z,0.00
2023-05-08T02:28:41.747Z,0.00
2023-05-08T02:29:41.744Z,0.00
2023-05-08T02:30:41.741Z,0.00
2023-05-08T02:31:41.760Z,0.00
2023-05-08T02:32:41.764Z,0.00
2023-05-08T02:33:41.686Z,0.00
2023-05-08T02:34:51.189Z,0.00
2023-05-08T02:35:42.689Z,0.00
2023-05-08T02:36:41.658Z,0.00
2023-05-08T02:37:41.657Z,0.00
2023-05-08T02:38:41.629Z,0.00
2023-05-08T02:39:41.649Z,0.00
2023-05-08T02:40:41.643Z,0.00
2023-05-08T02:41:41.610Z,0.00
2023-05-08T02:42:41.607Z,0.00
2023-05-08T02:43:41.592Z,0.00
2023-05-08T02:44:41.583Z,0.00
2023-05-08T02:45:41.608Z,0.00
2023-05-08T02:46:41.545Z,0.00
2023-05-08T02:47:41.622Z,0.00
2023-05-08T02:48:41.530Z,0.00
2023-05-08T02:49:41.545Z,0.00
2023-05-08T02:50:41.515Z,0.00
2023-05-08T02:51:41.505Z,0.00
2023-05-08T02:52:41.486Z,0.00
2023-05-08T02:53:41.498Z,0.00
2023-05-08T02:54:41.485Z,0.00
2023-05-08T02:55:41.466Z,0.00
2023-05-08T02:56:41.442Z,0.00
2023-05-08T02:57:41.431Z,0.00
2023-05-08T02:58:41.436Z,0.00
2023-05-08T02:59:41.437Z,0.00
2023-05-08T03:00:41.412Z,0.00
2023-05-08T03:01:41.484Z,0.00
2023-05-08T03:02:41.514Z,0.00
2023-05-08T03:03:41.576Z,0.00
2023-05-08T03:04:41.361Z,0.00
2023-05-08T03:05:41.356Z,0.00
2023-05-08T03:06:41.346Z,0.00
2023-05-08T03:07:41.354Z,0.00
2023-05-08T03:08:41.351Z,0.00
2023-05-08T03:09:41.310Z,0.00
2023-05-08T03:10:41.296Z,0.00
2023-05-08T03:11:41.292Z,0.00
2023-05-08T03:12:42.799Z,0.00
2023-05-08T03:13:41.272Z,0.00
2023-05-08T03:14:41.263Z,0.00
2023-05-08T03:15:41.278Z,0.00
2023-05-08T03:16:41.253Z,0.00
2023-05-08T03:17:41.274Z,0.00
2023-05-08T03:18:41.216Z,0.00
2023-05-08T03:19:41.232Z,0.00
2023-05-08T03:20:41.195Z,0.00
2023-05-08T03:21:41.214Z,0.00
2023-05-08T03:22:41.194Z,0.00
2023-05-08T03:23:41.174Z,0.00
2023-05-08T03:24:41.174Z,0.00
2023-05-08T03:25:41.145Z,0.00
2023-05-08T03:26:41.162Z,0.00
2023-05-08T03:27:41.148Z,0.00
2023-05-08T03:28:41.119Z,0.00
2023-05-08T03:29:41.110Z,0.00
2023-05-08T03:30:41.103Z,0.00
2023-05-08T03:31:41.142Z,0.00
2023-05-08T03:32:41.146Z,0.00
2023-05-08T03:33:41.074Z,0.00
2023-05-08T03:34:41.122Z,0.00
2023-05-08T03:35:41.068Z,0.00
2023-05-08T03:36:41.051Z,0.00
2023-05-08T03:37:41.024Z,0.00
2023-05-08T03:38:41.015Z,0.00
2023-05-08T03:39:40.996Z,0.00
2023-05-08T03:40:41.017Z,0.00
2023-05-08T03:41:40.994Z,0.00
2023-05-08T03:42:40.964Z,0.00
2023-05-08T03:43:40.957Z,0.00
2023-05-08T03:44:40.902Z,1.00
2023-05-08T03:45:40.911Z,1.00
2023-05-08T03:46:40.909Z,1.00
2023-05-08T03:47:42.392Z,1.00
2023-05-08T03:48:40.913Z,0.00
2023-05-08T03:49:40.913Z,0.00
2023-05-08T03:50:40.903Z,0.00
2023-05-08T03:51:40.841Z,1.00
2023-05-08T03:52:40.813Z,1.00
2023-05-08T03:53:40.801Z,2.00
2023-05-08T03:54:40.864Z,0.00
2023-05-08T03:55:40.801Z,2.00
2023-05-08T03:56:40.784Z,2.00
2023-05-08T03:57:40.822Z,0.00
2023-05-08T03:58:40.760Z,2.00
2023-05-08T03:59:40.774Z,2.00
2023-05-08T04:00:40.728Z,2.00
2023-05-08T04:01:40.856Z,2.00
2023-05-08T04:02:42.224Z,1.00
2023-05-08T04:03:40.772Z,1.00
2023-05-08T04:04:40.719Z,2.00
2023-05-08T04:05:40.688Z,1.00
2023-05-08T04:06:49.389Z,1.00
2023-05-08T04:07:41.667Z,1.00
2023-05-08T04:08:40.679Z,2.00
2023-05-08T04:09:40.646Z,1.00
2023-05-08T04:10:40.635Z,1.00
2023-05-08T04:11:40.628Z,1.00
2023-05-08T04:12:40.642Z,1.00
2023-05-08T04:13:40.629Z,1.00
2023-05-08T04:14:40.597Z,2.00
2023-05-08T04:15:40.590Z,1.00
2023-05-08T04:16:40.601Z,1.00
2023-05-08T04:17:40.678Z,2.00
2023-05-08T04:18:40.581Z,2.00
2023-05-08T04:19:40.550Z,2.00
2023-05-08T04:20:40.551Z,2.00
2023-05-08T04:21:40.534Z,4.00
2023-05-08T04:22:40.575Z,3.00
2023-05-08T04:23:40.506Z,3.00
2023-05-08T04:24:40.496Z,5.00
2023-05-08T04:25:40.506Z,4.00
2023-05-08T04:26:40.467Z,2.00
2023-05-08T04:27:40.493Z,4.00
2023-05-08T04:28:40.460Z,3.00
2023-05-08T04:29:40.478Z,3.00
2023-05-08T04:30:40.447Z,3.00
2023-05-08T04:31:40.475Z,5.00
2023-05-08T04:32:42.258Z,8.00
2023-05-08T04:33:40.408Z,6.00
2023-05-08T04:34:40.394Z,4.00
2023-05-08T04:35:40.395Z,3.00
2023-05-08T04:36:40.408Z,3.00
2023-05-08T04:37:40.378Z,4.00
2023-05-08T04:38:40.351Z,5.00
2023-05-08T04:39:42.507Z,3.00
2023-05-08T04:40:40.339Z,5.00
2023-05-08T04:41:40.414Z,5.00
2023-05-08T04:42:40.326Z,4.00
2023-05-08T04:43:40.315Z,4.00
2023-05-08T04:44:40.291Z,4.00
2023-05-08T04:45:40.322Z,4.00
2023-05-08T04:46:40.403Z,4.00
2023-05-08T04:47:40.302Z,4.00
2023-05-08T04:48:40.252Z,4.00
2023-05-08T04:49:40.246Z,4.00
2023-05-08T04:50:40.253Z,4.00
2023-05-08T04:51:40.243Z,4.00
2023-05-08T04:52:40.205Z,4.00
2023-05-08T04:53:40.216Z,4.00
2023-05-08T04:54:40.189Z,7.00
2023-05-08T04:55:40.215Z,7.00
2023-05-08T04:56:40.192Z,7.00
2023-05-08T04:57:40.178Z,7.00
2023-05-08T04:58:40.175Z,6.00
2023-05-08T04:59:40.168Z,6.00
2023-05-08T05:00:40.142Z,6.00
2023-05-08T05:01:40.155Z,6.00
2023-05-08T05:02:40.157Z,8.00
2023-05-08T05:03:40.143Z,8.00
2023-05-08T05:04:40.103Z,8.00
2023-05-08T05:05:40.084Z,4.00
2023-05-08T05:06:40.072Z,4.00
2023-05-08T05:07:40.063Z,4.00
2023-05-08T05:08:40.050Z,10.00
2023-05-08T05:09:40.056Z,9.00
2023-05-08T05:10:40.027Z,6.00
2023-05-08T05:11:40.020Z,6.00
2023-05-08T05:12:40.042Z,5.00
2023-05-08T05:13:40.023Z,7.00
2023-05-08T05:14:40.002Z,7.00
2023-05-08T05:15:39.981Z,7.00
2023-05-08T05:16:40.053Z,9.00
2023-05-08T05:17:40.042Z,8.00
2023-05-08T05:18:39.965Z,6.00
2023-05-08T05:19:39.937Z,10.00
2023-05-08T05:20:39.923Z,13.00
2023-05-08T05:21:39.961Z,9.00
2023-05-08T05:22:39.904Z,8.00
2023-05-08T05:23:40.011Z,8.00
2023-05-08T05:24:39.926Z,6.00
2023-05-08T05:25:39.873Z,8.00
2023-05-08T05:26:39.874Z,9.00
2023-05-08T05:27:39.902Z,9.00
2023-05-08T05:28:39.860Z,10.00
2023-05-08T05:29:39.838Z,10.00
2023-05-08T05:30:39.831Z,12.00
2023-05-08T05:31:39.917Z,8.00
2023-05-08T05:32:39.929Z,11.00
2023-05-08T05:33:39.798Z,11.00
2023-05-08T05:34:39.782Z,9.00
2023-05-08T05:35:39.796Z,9.00
2023-05-08T05:36:39.787Z,9.00
2023-05-08T05:37:39.771Z,12.00
2023-05-08T05:38:39.745Z,9.00
2023-05-08T05:39:39.747Z,9.00
2023-05-08T05:40:39.715Z,12.00
2023-05-08T05:41:39.727Z,14.00
2023-05-08T05:42:39.725Z,14.00
2023-05-08T05:43:39.690Z,13.00
2023-05-08T05:44:39.701Z,17.00
2023-05-08T05:45:39.698Z,14.00
2023-05-08T05:46:40.967Z,13.00
2023-05-08T05:47:39.675Z,15.00
2023-05-08T05:48:39.682Z,18.00
2023-05-08T05:49:39.698Z,16.00
2023-05-08T05:50:39.614Z,16.00
2023-05-08T05:51:39.648Z,15.00
2023-05-08T05:52:39.598Z,15.00
2023-05-08T05:53:39.586Z,20.00
2023-05-08T05:54:39.574Z,17.00
2023-05-08T05:55:39.591Z,18.00
2023-05-08T05:56:39.569Z,22.00
2023-05-08T05:57:39.544Z,21.00
2023-05-08T05:58:39.537Z,23.00
2023-05-08T05:59:39.553Z,25.00
2023-05-08T06:00:39.529Z,14.00
2023-05-08T06:01:39.580Z,21.00
2023-05-08T06:02:39.575Z,22.00
2023-05-08T06:03:39.628Z,24.00
2023-05-08T06:04:39.493Z,26.00
2023-05-08T06:05:39.485Z,27.00
2023-05-08T06:06:39.449Z,18.00
2023-05-08T06:07:39.443Z,19.00
2023-05-08T06:08:39.445Z,16.00
2023-05-08T06:09:39.440Z,19.00
2023-05-08T06:10:39.448Z,16.00
2023-05-08T06:11:39.399Z,18.00
2023-05-08T06:12:39.426Z,18.00
2023-05-08T06:13:39.390Z,17.00
2023-05-08T06:14:39.387Z,15.00
2023-05-08T06:15:39.364Z,15.00
2023-05-08T06:16:39.366Z,17.00
2023-05-08T06:17:39.375Z,18.00
2023-05-08T06:18:39.348Z,17.00
2023-05-08T06:19:39.333Z,17.00
2023-05-08T06:20:39.308Z,15.00
2023-05-08T06:21:39.301Z,15.00
2023-05-08T06:22:39.307Z,15.00
2023-05-08T06:23:39.291Z,14.00
2023-05-08T06:24:39.288Z,19.00
2023-05-08T06:25:39.260Z,19.00
2023-05-08T06:26:39.249Z,16.00
2023-05-08T06:27:39.240Z,15.00
2023-05-08T06:28:39.244Z,14.00
2023-05-08T06:29:39.217Z,18.00
2023-05-08T06:30:39.261Z,23.00
2023-05-08T06:31:39.200Z,17.00
2023-05-08T06:32:39.254Z,21.00
2023-05-08T06:33:39.198Z,24.00
2023-05-08T06:34:39.162Z,27.00
2023-05-08T06:35:39.156Z,30.00
2023-05-08T06:36:39.148Z,34.00
2023-05-08T06:37:39.158Z,36.00
2023-05-08T06:38:39.140Z,36.00
2023-05-08T06:39:39.112Z,43.00
2023-05-08T06:40:39.101Z,42.00
2023-05-08T06:41:39.106Z,35.00
2023-05-08T06:42:39.123Z,31.00
2023-05-08T06:43:39.066Z,35.00
2023-05-08T06:44:39.067Z,31.00
2023-05-08T06:45:39.038Z,21.00
2023-05-08T06:46:39.083Z,28.00
2023-05-08T06:47:39.077Z,38.00
2023-05-08T06:48:39.017Z,38.00
2023-05-08T06:49:39.007Z,29.00
2023-05-08T06:50:39.003Z,31.00
2023-05-08T06:51:39.005Z,39.00
2023-05-08T06:52:38.998Z,42.00
2023-05-08T06:53:38.971Z,46.00
2023-05-08T06:54:38.955Z,43.00
2023-05-08T06:55:38.949Z,44.00
2023-05-08T06:56:38.951Z,40.00
2023-05-08T06:57:38.928Z,49.00
2023-05-08T06:58:38.936Z,45.00
2023-05-08T06:59:38.901Z,46.00
2023-05-08T07:00:38.908Z,45.00
2023-05-08T07:01:38.945Z,41.00
2023-05-08T07:02:38.915Z,46.00
2023-05-08T07:03:38.857Z,43.00
2023-05-08T07:04:38.937Z,54.00
2023-05-08T07:05:38.876Z,56.00
2023-05-08T07:06:38.857Z,51.00
2023-05-08T07:07:38.824Z,50.00
2023-05-08T07:08:38.814Z,54.00
2023-05-08T07:09:38.801Z,51.00
2023-05-08T07:10:38.820Z,58.00
2023-05-08T07:11:38.937Z,45.00
2023-05-08T07:12:38.847Z,47.00
2023-05-08T07:13:38.760Z,53.00
2023-05-08T07:14:38.768Z,47.00
2023-05-08T07:15:38.766Z,48.00
2023-05-08T07:16:38.782Z,53.00
2023-05-08T07:17:38.718Z,52.00
2023-05-08T07:18:38.736Z,55.00
2023-05-08T07:19:38.756Z,54.00
2023-05-08T07:20:38.696Z,59.00
2023-05-08T07:21:38.724Z,52.00
2023-05-08T07:22:38.674Z,64.00
2023-05-08T07:23:38.661Z,56.00
2023-05-08T07:24:38.671Z,54.00
2023-05-08T07:25:38.639Z,42.00
2023-05-08T07:26:38.630Z,54.00
2023-05-08T07:27:38.632Z,43.00
2023-05-08T07:28:38.629Z,42.00
2023-05-08T07:29:38.608Z,57.00
2023-05-08T07:30:38.592Z,64.00
2023-05-08T07:31:38.602Z,47.00
2023-05-08T07:32:38.612Z,59.00
2023-05-08T07:33:38.590Z,47.00
2023-05-08T07:34:38.591Z,59.00
2023-05-08T07:35:38.566Z,50.00
2023-05-08T07:36:38.523Z,45.00
2023-05-08T07:37:38.518Z,39.00
2023-05-08T07:38:38.519Z,36.00
2023-05-08T07:39:38.500Z,37.00
2023-05-08T07:40:38.493Z,34.00
2023-05-08T07:41:38.492Z,33.00
2023-05-08T07:42:38.483Z,32.00
2023-05-08T07:43:38.483Z,28.00
2023-05-08T07:44:51.023Z,28.00
2023-05-08T07:45:39.430Z,41.00
2023-05-08T07:46:38.448Z,38.00
2023-05-08T07:47:38.464Z,39.00
2023-05-08T07:48:38.397Z,39.00
2023-05-08T07:49:38.382Z,42.00
2023-05-08T07:50:38.390Z,35.00
2023-05-08T07:51:38.371Z,55.00
2023-05-08T07:52:38.375Z,48.00
2023-05-08T07:53:38.350Z,52.00
2023-05-08T07:54:38.342Z,45.00
2023-05-08T07:55:38.315Z,41.00
2023-05-08T07:56:38.327Z,42.00
2023-05-08T07:57:38.323Z,35.00
2023-05-08T07:58:38.300Z,39.00
2023-05-08T07:59:38.302Z,31.00
2023-05-08T08:00:38.272Z,27.00
2023-05-08T08:01:38.300Z,27.00
2023-05-08T08:02:38.416Z,29.00
2023-05-08T08:03:38.300Z,27.00
2023-05-08T08:04:38.276Z,26.00
2023-05-08T08:05:38.219Z,28.00
2023-05-08T08:06:38.235Z,28.00
2023-05-08T08:07:38.230Z,27.00
2023-05-08T08:08:38.187Z,27.00
2023-05-08T08:09:38.183Z,29.00
2023-05-08T08:10:38.191Z,25.00
2023-05-08T08:11:38.171Z,24.00
2023-05-08T08:12:38.192Z,26.00
2023-05-08T08:13:38.142Z,27.00
2023-05-08T08:14:38.134Z,27.00
2023-05-08T08:15:38.137Z,28.00
2023-05-08T08:16:38.161Z,27.00
2023-05-08T08:17:38.169Z,32.00
2023-05-08T08:18:38.101Z,29.00
2023-05-08T08:19:38.082Z,33.00
2023-05-08T08:20:38.098Z,32.00
2023-05-08T08:21:38.051Z,36.00
2023-05-08T08:22:38.046Z,36.00
2023-05-08T08:23:38.038Z,42.00
2023-05-08T08:24:38.053Z,34.00
2023-05-08T08:25:38.045Z,31.00
2023-05-08T08:26:38.028Z,32.00
2023-05-08T08:27:37.998Z,33.00
2023-05-08T08:28:38.019Z,30.00
2023-05-08T08:29:37.994Z,36.00
2023-05-08T08:30:37.983Z,39.00
2023-05-08T08:31:38.131Z,36.00
2023-05-08T08:32:38.001Z,32.00
2023-05-08T08:33:37.940Z,40.00
2023-05-08T08:34:37.935Z,51.00
2023-05-08T08:35:37.905Z,61.00
2023-05-08T08:36:37.903Z,94.00
2023-05-08T08:37:37.890Z,131.00
2023-05-08T08:38:37.908Z,132.00
2023-05-08T08:39:37.887Z,52.00
2023-05-08T08:40:37.878Z,63.00
2023-05-08T08:41:37.851Z,133.00
2023-05-08T08:42:37.859Z,68.00
2023-05-08T08:43:37.848Z,104.00
2023-05-08T08:44:39.289Z,158.00
2023-05-08T08:45:37.817Z,119.00
2023-05-08T08:46:37.866Z,146.00
2023-05-08T08:47:37.992Z,181.00
2023-05-08T08:48:37.807Z,107.00
2023-05-08T08:49:37.771Z,39.00
2023-05-08T08:50:37.777Z,45.00
2023-05-08T08:51:37.755Z,58.00
2023-05-08T08:52:37.867Z,97.00
2023-05-08T08:53:37.752Z,122.00
2023-05-08T08:54:37.772Z,100.00
2023-05-08T08:55:37.710Z,98.00
2023-05-08T08:56:37.706Z,67.00
2023-05-08T08:57:37.718Z,99.00
2023-05-08T08:58:39.179Z,110.00
2023-05-08T08:59:37.665Z,80.00
2023-05-08T09:00:37.660Z,72.00
2023-05-08T09:01:37.734Z,85.00
2023-05-08T09:02:37.842Z,77.00
2023-05-08T09:03:37.766Z,86.00
2023-05-08T09:04:37.620Z,48.00
2023-05-08T09:05:37.606Z,60.00
2023-05-08T09:06:37.624Z,79.00
2023-05-08T09:07:37.578Z,80.00
2023-05-08T09:08:37.578Z,74.00
2023-05-08T09:09:37.577Z,42.00
2023-05-08T09:10:37.551Z,64.00
2023-05-08T09:11:37.582Z,93.00
2023-05-08T09:12:37.610Z,116.00
2023-05-08T09:13:37.689Z,151.00
2023-05-08T09:14:37.536Z,184.00
2023-05-08T09:15:37.523Z,219.00
2023-05-08T09:16:37.591Z,220.00
2023-05-08T09:17:37.516Z,268.00
2023-05-08T09:18:37.476Z,347.00
2023-05-08T09:19:37.469Z,298.00
2023-05-08T09:20:37.463Z,313.00
2023-05-08T09:21:37.434Z,338.00
2023-05-08T09:22:37.429Z,348.00
2023-05-08T09:23:37.422Z,348.00
2023-05-08T09:24:37.413Z,355.00
2023-05-08T09:25:37.413Z,352.00
2023-05-08T09:26:37.389Z,346.00
2023-05-08T09:27:37.380Z,359.00
2023-05-08T09:28:37.383Z,365.00
2023-05-08T09:29:37.381Z,367.00
2023-05-08T09:30:37.366Z,332.00
2023-05-08T09:31:37.369Z,356.00
2023-05-08T09:32:37.375Z,352.00
2023-05-08T09:33:37.310Z,361.00
2023-05-08T09:34:37.428Z,362.00
2023-05-08T09:35:37.294Z,361.00
2023-05-08T09:36:37.298Z,368.00
2023-05-08T09:37:37.268Z,370.00
2023-05-08T09:38:37.330Z,372.00
2023-05-08T09:39:37.263Z,377.00
2023-05-08T09:40:37.244Z,379.00
2023-05-08T09:41:37.228Z,373.00
2023-05-08T09:42:37.236Z,372.00
2023-05-08T09:43:37.232Z,381.00
2023-05-08T09:44:37.226Z,378.00
2023-05-08T09:45:37.204Z,386.00
2023-05-08T09:46:37.177Z,379.00
2023-05-08T09:47:37.227Z,384.00
2023-05-08T09:48:37.194Z,383.00
2023-05-08T09:49:37.150Z,391.00
2023-05-08T09:50:37.145Z,418.00
2023-05-08T09:51:37.132Z,376.00
2023-05-08T09:52:37.557Z,542.00
2023-05-08T09:53:37.128Z,349.00
2023-05-08T09:54:37.107Z,444.00
2023-05-08T09:55:37.087Z,216.00
2023-05-08T09:56:37.088Z,674.00
2023-05-08T09:57:37.080Z,422.00
2023-05-08T09:58:37.082Z,263.00
2023-05-08T09:59:37.052Z,240.00
2023-05-08T10:00:37.045Z,147.00
2023-05-08T10:01:37.073Z,124.00
2023-05-08T10:02:37.069Z,110.00
2023-05-08T10:03:37.044Z,96.00
2023-05-08T10:04:37.113Z,83.00
2023-05-08T10:05:36.990Z,84.00
2023-05-08T10:06:36.991Z,81.00
2023-05-08T10:07:36.990Z,80.00
2023-05-08T10:08:36.965Z,74.00
2023-05-08T10:09:49.698Z,75.00
2023-05-08T10:10:37.944Z,128.00
2023-05-08T10:11:36.955Z,121.00
2023-05-08T10:12:36.942Z,100.00
2023-05-08T10:13:36.909Z,90.00
2023-05-08T10:14:36.902Z,90.00
2023-05-08T10:15:36.889Z,84.00
2023-05-08T10:16:36.955Z,76.00
2023-05-08T10:17:36.922Z,110.00
2023-05-08T10:18:36.863Z,87.00
2023-05-08T10:19:36.858Z,82.00
2023-05-08T10:20:36.854Z,79.00
2023-05-08T10:21:36.842Z,87.00
2023-05-08T10:22:36.824Z,50.00
2023-05-08T10:23:36.810Z,160.00
2023-05-08T10:24:36.804Z,78.00
2023-05-08T10:25:36.786Z,74.00
2023-05-08T10:26:36.795Z,77.00
2023-05-08T10:27:36.784Z,75.00
2023-05-08T10:28:36.783Z,73.00
2023-05-08T10:29:36.745Z,74.00
2023-05-08T10:30:36.760Z,76.00
2023-05-08T10:31:36.811Z,77.00
2023-05-08T10:32:36.768Z,73.00
2023-05-08T10:33:36.710Z,67.00
2023-05-08T10:34:36.705Z,54.00
2023-05-08T10:35:36.716Z,97.00
2023-05-08T10:36:36.673Z,83.00
2023-05-08T10:37:36.671Z,73.00
2023-05-08T10:38:36.675Z,78.00
2023-05-08T10:39:36.667Z,85.00
2023-05-08T10:40:36.691Z,76.00
2023-05-08T10:41:36.622Z,74.00
2023-05-08T10:42:36.620Z,76.00
2023-05-08T10:43:36.616Z,64.00
2023-05-08T10:44:36.616Z,87.00
2023-05-08T10:45:36.588Z,112.00
2023-05-08T10:46:36.619Z,101.00
2023-05-08T10:47:36.613Z,89.00
2023-05-08T10:48:36.574Z,67.00
2023-05-08T10:49:36.558Z,119.00
2023-05-08T10:50:36.551Z,120.00
2023-05-08T10:51:36.532Z,114.00
2023-05-08T10:52:36.514Z,103.00
2023-05-08T10:53:36.521Z,93.00
2023-05-08T10:54:36.514Z,87.00
2023-05-08T10:55:36.484Z,106.00
2023-05-08T10:56:36.469Z,100.00
2023-05-08T10:57:36.476Z,89.00
2023-05-08T10:58:36.482Z,131.00
2023-05-08T10:59:36.440Z,168.00
2023-05-08T11:00:36.420Z,124.00
2023-05-08T11:01:36.446Z,108.00
2023-05-08T11:02:36.456Z,108.00
2023-05-08T11:03:36.507Z,100.00
2023-05-08T11:04:36.426Z,83.00
2023-05-08T11:05:36.383Z,86.00
2023-05-08T11:06:36.364Z,190.00
2023-05-08T11:07:36.364Z,149.00
2023-05-08T11:08:36.352Z,219.00
2023-05-08T11:09:36.332Z,276.00
2023-05-08T11:10:36.314Z,135.00
2023-05-08T11:11:36.319Z,97.00
2023-05-08T11:12:36.318Z,214.00
2023-05-08T11:13:36.311Z,147.00
2023-05-08T11:14:36.284Z,281.00
2023-05-08T11:15:36.304Z,117.00
2023-05-08T11:16:36.356Z,167.00
2023-05-08T11:17:36.275Z,546.00
2023-05-08T11:18:48.425Z,329.00
2023-05-08T11:19:37.420Z,418.00
2023-05-08T11:20:36.213Z,309.00
2023-05-08T11:21:36.225Z,171.00
2023-05-08T11:22:36.221Z,776.00
2023-05-08T11:23:36.192Z,273.00
2023-05-08T11:24:36.178Z,220.00
2023-05-08T11:25:36.173Z,145.00
2023-05-08T11:26:36.169Z,342.00
2023-05-08T11:27:36.213Z,302.00
2023-05-08T11:28:36.160Z,307.00
2023-05-08T11:29:36.147Z,304.00
2023-05-08T11:30:36.136Z,427.00
2023-05-08T11:31:36.204Z,130.00
2023-05-08T11:32:36.139Z,337.00
2023-05-08T11:33:36.078Z,185.00
2023-05-08T11:34:36.076Z,301.00
2023-05-08T11:35:36.083Z,114.00
2023-05-08T11:36:36.059Z,328.00
2023-05-08T11:37:36.046Z,135.00
2023-05-08T11:38:36.522Z,265.00
2023-05-08T11:39:36.041Z,289.00
2023-05-08T11:40:36.028Z,280.00
2023-05-08T11:41:36.009Z,255.00
2023-05-08T11:42:36.010Z,258.00
2023-05-08T11:43:35.986Z,246.00
2023-05-08T11:44:35.998Z,238.00
2023-05-08T11:45:35.985Z,320.00
2023-05-08T11:46:35.971Z,223.00
2023-05-08T11:47:35.958Z,219.00
2023-05-08T11:48:35.953Z,113.00
2023-05-08T11:49:35.946Z,104.00
2023-05-08T11:50:35.914Z,250.00
2023-05-08T11:51:35.910Z,239.00
2023-05-08T11:52:35.907Z,228.00
2023-05-08T11:53:35.883Z,226.00
2023-05-08T11:54:35.884Z,220.00
2023-05-08T11:55:35.867Z,215.00
2023-05-08T11:56:35.850Z,212.00
2023-05-08T11:57:35.855Z,211.00
2023-05-08T11:58:35.857Z,207.00
2023-05-08T11:59:35.834Z,208.00
2023-05-08T12:00:35.839Z,205.00
2023-05-08T12:01:35.814Z,201.00
2023-05-08T12:02:35.947Z,200.00
2023-05-08T12:03:35.960Z,240.00
2023-05-08T12:04:35.909Z,174.00
2023-05-08T12:05:35.771Z,168.00
2023-05-08T12:06:35.761Z,171.00
2023-05-08T12:07:35.743Z,168.00
2023-05-08T12:08:35.750Z,166.00
2023-05-08T12:09:35.732Z,158.00
2023-05-08T12:10:35.728Z,156.00
2023-05-08T12:11:35.724Z,154.00
2023-05-08T12:12:35.711Z,152.00
2023-05-08T12:13:35.775Z,150.00
2023-05-08T12:14:35.677Z,150.00
2023-05-08T12:15:35.664Z,144.00
2023-05-08T12:16:35.671Z,144.00
2023-05-08T12:17:35.725Z,139.00
2023-05-08T12:18:36.532Z,139.00
2023-05-08T12:19:35.641Z,141.00
2023-05-08T12:20:35.627Z,141.00
2023-05-08T12:21:35.598Z,137.00
2023-05-08T12:22:35.601Z,139.00
2023-05-08T12:23:35.597Z,136.00
2023-05-08T12:24:35.569Z,133.00
2023-05-08T12:25:35.556Z,126.00
2023-05-08T12:26:35.575Z,124.00
2023-05-08T12:27:35.575Z,119.00
2023-05-08T12:28:35.564Z,117.00
2023-05-08T12:29:35.594Z,113.00
2023-05-08T12:30:35.514Z,107.00
2023-05-08T12:31:35.549Z,106.00
2023-05-08T12:32:35.499Z,102.00
2023-05-08T12:33:35.510Z,101.00
2023-05-08T12:34:35.469Z,99.00
2023-05-08T12:35:35.454Z,100.00
2023-05-08T12:36:35.466Z,93.00
2023-05-08T12:37:35.439Z,93.00
2023-05-08T12:38:35.418Z,88.00
2023-05-08T12:39:35.423Z,119.00
2023-05-08T12:40:35.420Z,70.00
2023-05-08T12:41:35.412Z,85.00
2023-05-08T12:42:35.379Z,36.00
2023-05-08T12:43:35.382Z,30.00
2023-05-08T12:44:35.368Z,39.00
2023-05-08T12:45:35.372Z,57.00
2023-05-08T12:46:35.435Z,58.00
2023-05-08T12:47:35.366Z,56.00
2023-05-08T12:48:35.345Z,57.00
2023-05-08T12:49:35.334Z,57.00
2023-05-08T12:50:35.328Z,56.00
2023-05-08T12:51:35.294Z,52.00
2023-05-08T12:52:35.283Z,48.00
2023-05-08T12:53:35.284Z,54.00
2023-05-08T12:54:35.290Z,61.00
2023-05-08T12:55:35.290Z,57.00
2023-05-08T12:56:35.246Z,52.00
2023-05-08T12:57:35.237Z,48.00